Time;durP1;ratioP1;P1;durP2;ratioP2;P2;SDS_P1;SDS_P2;PMS_P1;PMS_P2;Temp;Humidity;BMP_temperature;BMP_pressure;BME280_temperature;BME280_humidity;BME280_pressure;Samples;Min_cycle;Max_cycle;Signal;HPM_P1;HPM_P2
2021/01/21 00:01:27;;;;;;;3.00;2.70;;;10.30;99.90;;;;;;4977201;28;20676;-67
2021/01/21 00:04:12;;;;;;;5.70;2.70;;;10.30;99.90;;;;;;4976143;28;20764;-67
2021/01/21 00:06:59;;;;;;;2.90;2.60;;;10.30;99.90;;;;;;4978066;28;20598;-67
2021/01/21 00:09:44;;;;;;;3.97;2.60;;;10.20;99.90;;;;;;4965721;28;20684;-67
2021/01/21 00:12:28;;;;;;;4.63;2.40;;;10.10;99.90;;;;;;4975181;28;20733;-68
2021/01/21 00:15:13;;;;;;;3.40;2.70;;;10.10;99.90;;;;;;4961290;28;20649;-68
2021/01/21 00:17:57;;;;;;;2.67;2.47;;;10.10;99.90;;;;;;4961765;28;20645;-67
2021/01/21 00:20:42;;;;;;;5.20;2.30;;;10.20;99.90;;;;;;4976911;28;20720;-68
2021/01/21 00:23:26;;;;;;;4.90;2.60;;;10.10;99.90;;;;;;4961870;28;20589;-68
2021/01/21 00:26:11;;;;;;;5.33;2.53;;;10.00;99.90;;;;;;4959915;28;20613;-67
2021/01/21 00:28:58;;;;;;;2.97;2.43;;;10.00;99.90;;;;;;4962213;28;20961;-67
2021/01/21 00:31:42;;;;;;;3.50;2.70;;;10.00;99.90;;;;;;4964268;28;21125;-68
2021/01/21 00:34:26;;;;;;;2.80;2.57;;;10.00;99.90;;;;;;4976909;28;21274;-67
2021/01/21 00:37:10;;;;;;;3.80;2.47;;;10.00;99.90;;;;;;4973439;28;20796;-68
2021/01/21 00:39:55;;;;;;;3.43;2.60;;;10.00;99.90;;;;;;4966534;28;20653;-68
2021/01/21 00:42:40;;;;;;;3.33;2.90;;;10.00;99.90;;;;;;4973833;28;20629;-68
2021/01/21 00:45:24;;;;;;;2.60;2.40;;;10.00;99.90;;;;;;4968740;28;21139;-68
2021/01/21 00:48:09;;;;;;;3.10;2.80;;;10.00;99.90;;;;;;4957771;28;20743;-68
2021/01/21 00:50:54;;;;;;;2.63;2.43;;;9.80;99.90;;;;;;4963191;28;20621;-68
2021/01/21 00:53:38;;;;;;;2.90;2.60;;;9.80;99.90;;;;;;4973620;28;21055;-68
2021/01/21 00:56:23;;;;;;;2.60;2.40;;;9.70;99.90;;;;;;4963443;28;20620;-67
2021/01/21 00:59:08;;;;;;;4.30;2.60;;;9.60;99.90;;;;;;4962764;28;21310;-67
2021/01/21 01:01:53;;;;;;;2.90;2.23;;;9.50;99.90;;;;;;4975410;28;21150;-68
2021/01/21 01:04:40;;;;;;;3.00;2.33;;;9.50;99.90;;;;;;4974274;28;20681;-67
2021/01/21 01:07:27;;;;;;;3.97;2.30;;;9.50;99.90;;;;;;4970503;28;21253;-67
2021/01/21 01:10:17;;;;;;;4.97;2.50;;;9.40;99.90;;;;;;4964205;28;20661;-67
2021/01/21 01:13:02;;;;;;;2.97;2.33;;;9.40;99.90;;;;;;4955837;28;20692;-67
2021/01/21 01:15:47;;;;;;;2.60;2.40;;;9.40;99.90;;;;;;4963781;28;20637;-67
2021/01/21 01:18:31;;;;;;;3.70;2.40;;;9.40;99.90;;;;;;4954935;28;20665;-67
2021/01/21 01:21:16;;;;;;;3.20;2.37;;;9.50;99.90;;;;;;4965483;28;20600;-68
2021/01/21 01:24:00;;;;;;;3.83;2.60;;;9.50;99.90;;;;;;4952951;28;20637;-67
2021/01/21 01:26:45;;;;;;;3.90;2.63;;;9.30;99.90;;;;;;4963624;28;21066;-67
2021/01/21 01:29:31;;;;;;;3.27;2.37;;;9.40;99.90;;;;;;4964410;28;20655;-67
2021/01/21 01:32:16;;;;;;;2.47;2.10;;;9.50;99.90;;;;;;4965550;28;20704;-67
2021/01/21 01:35:00;;;;;;;4.27;2.50;;;9.50;99.90;;;;;;4967447;28;20633;-67
2021/01/21 01:37:45;;;;;;;2.57;2.30;;;9.50;99.90;;;;;;4976232;28;21262;-67
2021/01/21 01:40:31;;;;;;;3.00;2.70;;;9.50;99.90;;;;;;4972776;28;20729;-67
2021/01/21 01:43:16;;;;;;;3.40;2.33;;;9.40;99.90;;;;;;4960846;28;20761;-67
2021/01/21 01:46:02;;;;;;;2.93;2.60;;;9.50;99.90;;;;;;4979253;28;20618;-67
2021/01/21 01:48:47;;;;;;;2.93;2.10;;;9.50;99.90;;;;;;5005985;22;20711;-75
2021/01/21 01:51:31;;;;;;;4.47;2.47;;;9.40;99.90;;;;;;5018717;28;20686;-75
2021/01/21 01:54:16;;;;;;;2.43;2.10;;;9.40;99.90;;;;;;5018908;28;20643;-75
2021/01/21 01:57:02;;;;;;;4.63;2.50;;;9.50;99.90;;;;;;4999250;28;20767;-75
2021/01/21 01:59:50;;;;;;;2.80;2.57;;;9.40;99.90;;;;;;5001247;28;20644;-75
2021/01/21 02:02:37;;;;;;;2.50;2.30;;;9.50;99.90;;;;;;4999994;28;21546;-75
2021/01/21 02:05:22;;;;;;;2.57;2.37;;;9.50;99.90;;;;;;4992831;28;21259;-76
2021/01/21 02:08:07;;;;;;;2.60;2.40;;;9.50;99.90;;;;;;4999952;28;20783;-75
2021/01/21 02:10:59;;;;;;;2.60;2.40;;;9.50;99.90;;;;;;4985704;28;20714;-75
2021/01/21 02:14:02;;;;;;;3.30;3.00;;;9.50;99.90;;;;;;4985355;28;20712;-75
2021/01/21 02:17:01;;;;;;;3.67;2.37;;;9.50;99.90;;;;;;4987555;28;20622;-75
2021/01/21 02:20:21;;;;;;;4.30;2.63;;;9.40;99.90;;;;;;4984914;28;20628;-75
2021/01/21 02:23:36;;;;;;;3.47;2.60;;;9.50;99.90;;;;;;4999664;28;20597;-75
2021/01/21 02:26:36;;;;;;;3.37;2.70;;;9.50;99.90;;;;;;4992756;28;21223;-75
2021/01/21 02:29:31;;;;;;;5.27;2.67;;;9.60;99.90;;;;;;4986421;28;20923;-75
2021/01/21 02:32:50;;;;;;;3.40;2.60;;;9.50;99.90;;;;;;4987341;28;20707;-76
2021/01/21 02:35:36;;;;;;;5.43;2.80;;;9.40;99.90;;;;;;5000211;28;20666;-75
2021/01/21 02:38:21;;;;;;;3.80;2.53;;;9.50;99.90;;;;;;4993774;28;20651;-75
2021/01/21 02:41:06;;;;;;;3.10;2.80;;;9.40;99.90;;;;;;4993939;28;20620;-76
2021/01/21 02:43:54;;;;;;;3.63;2.60;;;9.40;99.90;;;;;;4994285;28;20715;-75
2021/01/21 02:46:40;;;;;;;3.00;2.57;;;9.30;99.90;;;;;;5001805;28;20764;-75
2021/01/21 02:49:25;;;;;;;3.77;2.93;;;9.30;99.90;;;;;;5005242;28;20818;-75
2021/01/21 02:52:47;;;;;;;2.27;2.07;;;9.20;99.90;;;;;;4979683;28;20605;-75
2021/01/21 02:55:51;;;;;;;2.23;2.03;;;9.20;99.90;;;;;;4999114;28;20656;-75
2021/01/21 02:58:41;;;;;;;4.30;2.47;;;9.30;99.90;;;;;;4989163;28;20754;-75
2021/01/21 03:01:26;;;;;;;2.73;2.50;;;9.20;99.90;;;;;;4984574;28;20636;-75
2021/01/21 03:04:12;;;;;;;2.20;2.00;;;9.30;99.90;;;;;;5000312;28;20867;-75
2021/01/21 03:07:00;;;;;;;2.73;2.40;;;9.30;99.90;;;;;;4989938;28;20740;-75
2021/01/21 03:09:45;;;;;;;3.90;2.20;;;9.30;99.90;;;;;;4989439;28;20600;-75
2021/01/21 03:12:29;;;;;;;3.00;2.70;;;9.20;99.90;;;;;;4996309;28;20750;-75
2021/01/21 03:15:14;;;;;;;2.57;2.37;;;9.20;99.90;;;;;;5002177;28;20823;-75
2021/01/21 03:17:58;;;;;;;4.13;2.40;;;9.20;99.90;;;;;;4982450;28;20689;-75
2021/01/21 03:20:42;;;;;;;3.03;2.23;;;9.30;99.90;;;;;;5004160;28;20687;-75
2021/01/21 03:23:27;;;;;;;2.37;2.17;;;9.30;99.90;;;;;;5007289;28;20615;-76
2021/01/21 03:26:13;;;;;;;3.43;2.40;;;9.30;99.90;;;;;;4983690;28;20659;-75
2021/01/21 03:28:57;;;;;;;3.10;2.07;;;9.30;99.90;;;;;;4989369;28;20643;-75
2021/01/21 03:31:41;;;;;;;4.33;2.40;;;9.30;99.90;;;;;;4983463;28;20603;-75
2021/01/21 03:34:28;;;;;;;4.33;2.60;;;9.30;99.90;;;;;;5003093;28;20841;-75
2021/01/21 03:37:13;;;;;;;4.80;2.70;;;9.30;99.90;;;;;;4981098;28;20724;-75
2021/01/21 03:39:58;;;;;;;3.37;2.37;;;9.30;99.90;;;;;;4988606;28;20629;-75
2021/01/21 03:42:42;;;;;;;2.67;2.27;;;9.40;99.90;;;;;;5009077;28;21215;-75
2021/01/21 03:45:27;;;;;;;5.80;2.50;;;9.40;99.90;;;;;;4995959;28;21313;-75
2021/01/21 03:48:12;;;;;;;3.20;1.97;;;9.40;99.90;;;;;;4989523;28;20667;-75
2021/01/21 03:50:56;;;;;;;2.80;2.60;;;9.30;99.90;;;;;;4983541;28;20656;-75
2021/01/21 03:53:41;;;;;;;3.20;2.87;;;9.30;99.90;;;;;;4993008;28;20699;-75
2021/01/21 03:56:25;;;;;;;3.63;2.47;;;9.40;99.90;;;;;;4989323;28;20636;-75
2021/01/21 03:59:12;;;;;;;3.87;2.20;;;9.30;99.90;;;;;;4989929;28;20652;-75
2021/01/21 04:01:56;;;;;;;3.00;2.33;;;9.20;99.90;;;;;;5004700;28;21091;-75
2021/01/21 04:04:41;;;;;;;2.30;2.10;;;9.30;99.90;;;;;;4996640;28;20644;-75
2021/01/21 04:07:25;;;;;;;2.47;2.07;;;9.40;99.90;;;;;;4989645;28;21096;-75
2021/01/21 04:10:12;;;;;;;2.30;2.10;;;9.40;99.90;;;;;;5001401;28;20701;-75
2021/01/21 04:12:56;;;;;;;3.40;2.40;;;9.50;99.90;;;;;;4993945;28;20580;-75
2021/01/21 04:15:41;;;;;;;2.73;2.53;;;9.50;99.90;;;;;;4992154;28;21214;-75
2021/01/21 04:18:25;;;;;;;2.87;2.00;;;9.50;99.90;;;;;;4990137;28;21226;-75
2021/01/21 04:21:10;;;;;;;3.40;2.20;;;9.50;99.90;;;;;;4989674;28;20675;-75
2021/01/21 04:23:59;;;;;;;2.10;1.83;;;9.50;99.90;;;;;;4985118;28;20774;-75
2021/01/21 04:26:43;;;;;;;3.60;2.10;;;9.50;99.90;;;;;;4984311;28;20652;-75
2021/01/21 04:29:28;;;;;;;3.27;2.50;;;9.40;99.90;;;;;;4989215;28;20723;-75
2021/01/21 04:32:12;;;;;;;2.07;1.97;;;9.40;99.90;;;;;;5001308;28;20648;-75
2021/01/21 04:34:57;;;;;;;2.80;2.27;;;9.30;99.90;;;;;;4987443;28;20632;-75
2021/01/21 04:37:42;;;;;;;2.43;2.20;;;9.30;99.90;;;;;;5004769;28;20613;-75
2021/01/21 04:40:27;;;;;;;2.10;1.90;;;9.30;99.90;;;;;;5002029;28;20740;-76
2021/01/21 04:43:14;;;;;;;2.80;2.20;;;9.40;99.90;;;;;;5001671;28;20710;-76
2021/01/21 04:45:58;;;;;;;4.23;2.80;;;9.40;99.90;;;;;;5004681;28;20640;-75
2021/01/21 04:48:45;;;;;;;2.03;1.87;;;9.40;99.90;;;;;;4998264;28;20675;-75
2021/01/21 04:51:32;;;;;;;1.93;1.80;;;9.30;99.90;;;;;;4987394;28;21282;-75
2021/01/21 04:54:27;;;;;;;2.97;2.13;;;9.30;99.90;;;;;;4992308;28;20695;-75
2021/01/21 04:57:14;;;;;;;4.20;2.20;;;9.30;99.90;;;;;;5004375;28;20690;-75
2021/01/21 05:00:05;;;;;;;2.73;1.97;;;9.30;99.90;;;;;;4992175;28;20577;-76
2021/01/21 05:02:50;;;;;;;1.90;1.80;;;9.40;99.90;;;;;;4990078;28;20696;-75
2021/01/21 05:05:35;;;;;;;2.77;2.13;;;9.50;99.90;;;;;;4995772;28;20660;-75
2021/01/21 05:08:21;;;;;;;2.73;1.90;;;9.40;99.90;;;;;;4988385;28;20719;-75
2021/01/21 05:11:06;;;;;;;5.33;2.20;;;9.40;99.90;;;;;;4998832;28;20640;-75
2021/01/21 05:13:50;;;;;;;2.20;1.97;;;9.40;99.90;;;;;;4981382;28;20629;-75
2021/01/21 05:16:35;;;;;;;2.00;1.80;;;9.50;99.90;;;;;;4980055;28;20585;-75
2021/01/21 05:19:20;;;;;;;2.73;2.53;;;9.50;99.90;;;;;;4982692;28;20660;-75
2021/01/21 05:22:04;;;;;;;2.90;2.00;;;9.60;99.90;;;;;;4988738;28;20577;-75
2021/01/21 05:24:52;;;;;;;3.03;2.50;;;9.50;99.90;;;;;;4995562;28;20647;-75
2021/01/21 05:27:39;;;;;;;4.03;2.70;;;9.50;99.90;;;;;;4981126;28;20580;-75
2021/01/21 05:30:27;;;;;;;1.90;1.80;;;9.50;99.90;;;;;;4998257;28;20639;-75
2021/01/21 05:33:14;;;;;;;2.83;1.97;;;9.40;99.90;;;;;;4983390;28;20584;-75
2021/01/21 05:35:58;;;;;;;1.90;1.80;;;9.50;99.90;;;;;;4989346;28;21090;-75
2021/01/21 05:38:54;;;;;;;3.33;2.00;;;9.50;99.90;;;;;;4993912;28;20664;-75
2021/01/21 05:41:39;;;;;;;3.63;2.20;;;9.40;99.90;;;;;;4996929;28;20589;-75
2021/01/21 05:44:24;;;;;;;2.37;2.17;;;9.40;99.90;;;;;;4994797;28;20652;-75
2021/01/21 05:47:09;;;;;;;2.37;1.90;;;9.50;99.90;;;;;;5001062;28;20648;-75
2021/01/21 05:49:53;;;;;;;3.07;2.10;;;9.60;99.90;;;;;;4995826;28;21202;-75
2021/01/21 05:52:38;;;;;;;2.50;1.97;;;9.60;99.90;;;;;;4988583;28;20802;-75
2021/01/21 05:55:24;;;;;;;2.73;1.80;;;9.60;99.90;;;;;;4998484;28;20746;-75
2021/01/21 05:58:10;;;;;;;1.87;1.77;;;9.70;99.90;;;;;;4993242;28;21140;-75
2021/01/21 06:00:58;;;;;;;2.60;1.70;;;9.70;99.90;;;;;;4993370;28;20676;-75
2021/01/21 06:03:44;;;;;;;1.90;1.80;;;9.80;99.90;;;;;;5001025;28;21186;-75
2021/01/21 06:06:30;;;;;;;2.20;2.00;;;9.70;99.90;;;;;;4998344;28;20644;-75
2021/01/21 06:09:27;;;;;;;2.03;1.90;;;9.80;99.90;;;;;;4985448;28;21270;-75
2021/01/21 06:12:12;;;;;;;2.60;2.03;;;9.90;99.90;;;;;;4975965;28;20828;-75
2021/01/21 06:15:01;;;;;;;2.13;1.60;;;9.90;99.90;;;;;;4992521;28;20711;-75
2021/01/21 06:17:49;;;;;;;3.10;1.70;;;10.00;99.90;;;;;;4986230;28;20695;-74
2021/01/21 06:20:34;;;;;;;4.87;2.10;;;10.10;99.90;;;;;;4997718;28;20593;-74
2021/01/21 06:23:23;;;;;;;3.23;2.07;;;10.20;99.90;;;;;;5001357;28;20624;-74
2021/01/21 06:26:20;;;;;;;2.10;2.00;;;10.20;99.90;;;;;;5001532;28;21120;-74
2021/01/21 06:29:06;;;;;;;2.47;1.87;;;10.20;99.90;;;;;;4983784;28;20655;-75
2021/01/21 06:31:51;;;;;;;2.77;2.17;;;10.20;99.90;;;;;;4998747;28;21265;-75
2021/01/21 06:34:39;;;;;;;3.00;2.03;;;10.30;99.90;;;;;;4988478;28;20816;-75
2021/01/21 06:37:29;;;;;;;1.70;1.60;;;10.30;99.90;;;;;;4980923;28;20632;-75
2021/01/21 06:40:15;;;;;;;1.83;1.73;;;10.30;99.90;;;;;;4976941;28;20608;-75
2021/01/21 06:43:10;;;;;;;1.87;1.70;;;10.30;99.90;;;;;;4993666;28;20612;-76
2021/01/21 06:45:59;;;;;;;2.27;1.93;;;10.30;99.90;;;;;;4978981;28;20652;-75
2021/01/21 06:48:48;;;;;;;2.30;1.63;;;10.30;99.90;;;;;;4983317;28;20675;-76
2021/01/21 06:51:33;;;;;;;3.33;1.80;;;10.30;99.90;;;;;;4985794;28;20651;-75
2021/01/21 06:54:19;;;;;;;2.30;1.80;;;10.40;99.90;;;;;;4980618;28;20744;-75
2021/01/21 06:57:35;;;;;;;2.30;1.60;;;10.50;99.90;;;;;;4993607;28;20639;-76
2021/01/21 07:00:44;;;;;;;1.93;1.80;;;10.50;99.90;;;;;;4970208;28;20719;-75
2021/01/21 07:03:34;;;;;;;2.10;1.83;;;10.60;99.90;;;;;;4953727;28;20694;-75
2021/01/21 07:06:19;;;;;;;3.23;2.00;;;10.60;99.90;;;;;;4938237;28;20648;-75
2021/01/21 07:09:05;;;;;;;1.53;1.43;;;10.70;99.90;;;;;;4955442;28;20801;-75
2021/01/21 07:11:54;;;;;;;3.73;1.83;;;10.70;99.90;;;;;;4970252;28;21301;-77
2021/01/21 07:14:40;;;;;;;3.10;1.60;;;10.70;99.90;;;;;;4951640;28;20647;-75
2021/01/21 07:17:27;;;;;;;1.90;1.70;;;10.80;99.90;;;;;;4969944;28;20616;-75
2021/01/21 07:20:12;;;;;;;2.33;1.77;;;10.90;99.90;;;;;;4966474;28;20948;-75
2021/01/21 07:23:05;;;;;;;2.43;1.77;;;10.80;99.90;;;;;;4969074;28;20656;-75
2021/01/21 07:25:50;;;;;;;2.87;1.97;;;10.90;99.90;;;;;;4966429;28;20864;-75
2021/01/21 07:28:59;;;;;;;1.70;1.60;;;10.80;99.90;;;;;;4989431;28;20675;-76
2021/01/21 07:31:56;;;;;;;2.70;1.70;;;10.80;99.90;;;;;;4983443;28;21207;-75
2021/01/21 07:34:44;;;;;;;2.93;1.70;;;10.70;99.90;;;;;;4983459;28;20874;-75
2021/01/21 07:37:44;;;;;;;2.10;2.00;;;10.80;99.90;;;;;;4969630;28;20601;-75
2021/01/21 07:40:46;;;;;;;1.87;1.60;;;10.80;99.90;;;;;;5009726;28;20600;-75
2021/01/21 07:44:09;;;;;;;1.70;1.50;;;10.90;99.90;;;;;;4995695;28;20739;-75
2021/01/21 07:47:23;;;;;;;1.80;1.70;;;11.00;99.90;;;;;;4940330;28;21029;-75
2021/01/21 07:50:17;;;;;;;2.00;1.90;;;11.10;99.90;;;;;;4939774;28;20657;-75
2021/01/21 07:53:04;;;;;;;1.80;1.47;;;11.10;99.90;;;;;;4952843;28;20649;-74
2021/01/21 07:55:50;;;;;;;3.37;1.27;;;11.20;99.90;;;;;;4946318;28;20629;-75
2021/01/21 07:58:38;;;;;;;1.77;0.80;;;11.10;99.90;;;;;;5038752;22;20843;-68
2021/01/21 08:01:22;;;;;;;1.00;0.80;;;11.00;99.90;;;;;;4994478;28;20625;-67
2021/01/21 08:04:07;;;;;;;0.97;0.80;;;11.00;99.90;;;;;;4997239;28;20694;-67
2021/01/21 08:06:56;;;;;;;0.80;0.80;;;10.80;99.90;;;;;;4999606;28;20865;-69
2021/01/21 08:09:40;;;;;;;2.43;0.77;;;10.70;99.90;;;;;;5010366;28;21226;-69
2021/01/21 08:12:25;;;;;;;1.53;0.70;;;10.70;99.90;;;;;;4998847;28;20639;-69
2021/01/21 08:15:17;;;;;;;1.83;1.00;;;10.70;99.90;;;;;;5002384;28;21145;-67
2021/01/21 08:18:03;;;;;;;0.77;0.60;;;10.30;99.90;;;;;;4997768;28;20964;-66
2021/01/21 08:20:48;;;;;;;2.53;0.60;;;10.30;99.90;;;;;;5009746;28;20646;-69
2021/01/21 08:23:35;;;;;;;2.13;0.80;;;10.20;99.90;;;;;;4999556;28;20673;-68
2021/01/21 08:26:19;;;;;;;1.03;0.60;;;10.10;99.90;;;;;;5010024;28;20693;-67
2021/01/21 08:29:12;;;;;;;1.27;0.80;;;10.00;99.90;;;;;;5002679;28;20787;-67
2021/01/21 08:31:59;;;;;;;1.67;0.60;;;10.00;99.90;;;;;;5001929;28;21237;-66
2021/01/21 08:34:46;;;;;;;1.20;0.80;;;9.90;99.90;;;;;;4995624;28;20693;-66
2021/01/21 08:37:30;;;;;;;0.97;0.73;;;9.80;99.90;;;;;;4999257;28;20711;-67
2021/01/21 08:40:16;;;;;;;0.87;0.73;;;9.60;99.90;;;;;;4988292;28;20659;-65
2021/01/21 08:43:00;;;;;;;2.57;0.80;;;9.50;99.90;;;;;;4976961;28;20631;-66
2021/01/21 08:45:46;;;;;;;1.77;0.77;;;9.50;99.90;;;;;;4964826;28;20836;-67
2021/01/21 08:48:31;;;;;;;1.23;0.90;;;9.40;99.90;;;;;;4987163;28;20771;-67
2021/01/21 08:51:49;;;;;;;1.57;0.80;;;9.30;99.90;;;;;;5001457;28;20595;-67
2021/01/21 08:54:33;;;;;;;1.23;0.70;;;9.20;99.90;;;;;;5004657;28;20951;-66
2021/01/21 08:57:21;;;;;;;1.53;0.87;;;9.10;99.90;;;;;;5006072;28;20739;-68
2021/01/21 09:00:13;;;;;;;2.10;0.80;;;9.10;99.90;;;;;;5007482;28;20813;-67
2021/01/21 09:02:59;;;;;;;2.67;0.90;;;9.10;99.90;;;;;;5013042;28;20580;-66
2021/01/21 09:05:58;;;;;;;0.97;0.70;;;9.20;99.90;;;;;;4995375;28;20644;-67
2021/01/21 09:08:51;;;;;;;0.93;0.60;;;9.20;99.90;;;;;;5004346;28;20662;-67
2021/01/21 09:11:38;;;;;;;2.37;0.90;;;9.10;99.90;;;;;;4998389;28;20646;-67
2021/01/21 09:14:26;;;;;;;2.17;0.90;;;9.10;99.90;;;;;;4995694;28;20697;-67
2021/01/21 09:17:17;;;;;;;2.20;0.90;;;9.10;99.90;;;;;;5000741;28;20579;-67
2021/01/21 09:20:20;;;;;;;1.30;0.83;;;9.10;99.90;;;;;;5000556;28;20662;-67
2021/01/21 09:23:12;;;;;;;1.90;1.10;;;9.10;99.90;;;;;;5013487;28;20752;-67
2021/01/21 09:26:13;;;;;;;3.13;1.00;;;9.10;99.90;;;;;;4993643;28;20689;-68
2021/01/21 09:28:58;;;;;;;3.57;1.13;;;9.20;99.90;;;;;;5009022;28;20729;-66
2021/01/21 09:31:43;;;;;;;1.37;1.00;;;9.10;99.90;;;;;;4995033;28;21047;-66
2021/01/21 09:34:27;;;;;;;1.30;1.20;;;9.00;99.90;;;;;;4996135;28;20675;-68
2021/01/21 09:37:12;;;;;;;1.90;1.43;;;9.10;99.90;;;;;;4998733;28;20778;-67
2021/01/21 09:39:57;;;;;;;1.97;1.20;;;9.20;99.90;;;;;;5004848;28;21020;-66
2021/01/21 09:42:42;;;;;;;1.40;1.30;;;9.20;99.90;;;;;;5003841;28;20643;-66
2021/01/21 09:45:28;;;;;;;2.03;1.20;;;9.20;99.90;;;;;;5005939;28;20655;-67
2021/01/21 09:48:13;;;;;;;1.73;1.30;;;9.30;99.90;;;;;;4998071;28;20642;-67
2021/01/21 09:50:57;;;;;;;2.70;1.20;;;9.20;99.90;;;;;;4997328;28;21255;-67
2021/01/21 09:53:42;;;;;;;2.03;1.70;;;9.20;99.90;;;;;;4972878;28;20965;-67
2021/01/21 09:56:27;;;;;;;2.40;1.33;;;9.20;99.90;;;;;;4976791;28;20708;-65
2021/01/21 09:59:12;;;;;;;2.93;1.33;;;9.20;99.90;;;;;;4976478;28;20686;-67
2021/01/21 10:01:57;;;;;;;1.63;1.33;;;9.10;99.90;;;;;;4974499;28;20626;-66
2021/01/21 10:04:41;;;;;;;2.70;1.50;;;9.30;99.90;;;;;;4987080;28;20667;-66
2021/01/21 10:07:26;;;;;;;1.70;1.40;;;9.30;99.90;;;;;;4979909;28;20957;-66
2021/01/21 10:10:11;;;;;;;2.97;1.60;;;9.20;99.90;;;;;;4970549;28;21016;-67
2021/01/21 10:12:56;;;;;;;1.53;1.40;;;9.10;99.90;;;;;;5012203;28;20655;-66
2021/01/21 10:15:40;;;;;;;2.33;1.40;;;9.30;99.90;;;;;;4997951;28;20659;-67
2021/01/21 10:18:24;;;;;;;2.57;1.87;;;9.10;99.90;;;;;;4999855;28;21028;-67
2021/01/21 10:21:10;;;;;;;1.87;1.40;;;9.20;99.90;;;;;;5004466;28;20632;-65
2021/01/21 10:23:55;;;;;;;3.07;1.60;;;9.10;99.90;;;;;;4999572;28;20627;-66
2021/01/21 10:26:40;;;;;;;2.27;1.90;;;9.20;99.90;;;;;;4998159;28;20746;-66
2021/01/21 10:29:25;;;;;;;2.33;1.43;;;9.20;99.90;;;;;;4999567;28;20790;-65
2021/01/21 10:32:09;;;;;;;2.67;1.90;;;9.30;99.90;;;;;;4999032;28;20630;-65
2021/01/21 10:34:56;;;;;;;5.67;2.07;;;9.30;99.90;;;;;;5007444;28;20647;-68
2021/01/21 10:37:40;;;;;;;4.10;1.60;;;9.40;99.90;;;;;;4999575;28;20615;-67
2021/01/21 10:40:25;;;;;;;2.93;2.47;;;9.50;99.90;;;;;;5001454;28;20659;-67
2021/01/21 10:43:09;;;;;;;1.83;1.57;;;9.50;99.90;;;;;;5001426;28;20596;-67
2021/01/21 10:45:54;;;;;;;2.73;1.53;;;9.50;99.90;;;;;;5008263;28;20733;-67
2021/01/21 10:48:38;;;;;;;3.87;1.80;;;9.60;99.90;;;;;;4999754;28;20659;-69
2021/01/21 10:51:22;;;;;;;1.70;1.37;;;9.70;99.90;;;;;;5002189;28;20619;-67
2021/01/21 10:54:07;;;;;;;3.37;1.60;;;9.60;99.90;;;;;;4996899;28;20662;-66
2021/01/21 10:56:55;;;;;;;4.20;1.40;;;9.70;99.90;;;;;;5007410;28;20600;-65
2021/01/21 10:59:40;;;;;;;1.33;1.23;;;9.70;99.90;;;;;;5004397;28;20810;-67
2021/01/21 11:02:24;;;;;;;1.50;1.20;;;9.60;99.90;;;;;;5001932;28;20694;-67
2021/01/21 11:05:09;;;;;;;2.63;1.77;;;9.50;99.90;;;;;;4996757;28;20647;-66
2021/01/21 11:07:54;;;;;;;3.87;1.40;;;9.60;99.90;;;;;;5003945;28;21058;-66
2021/01/21 11:10:39;;;;;;;2.33;1.40;;;9.50;99.90;;;;;;5003131;28;20642;-67
2021/01/21 11:13:24;;;;;;;3.30;1.50;;;9.50;99.90;;;;;;5001218;28;20658;-67
2021/01/21 11:16:10;;;;;;;4.17;1.83;;;9.40;99.90;;;;;;5002524;28;20618;-68
2021/01/21 11:18:54;;;;;;;4.60;1.67;;;9.50;99.90;;;;;;5002816;28;20703;-66
2021/01/21 11:21:38;;;;;;;2.10;1.60;;;9.50;99.90;;;;;;5001838;28;20731;-67
2021/01/21 11:24:23;;;;;;;1.70;1.50;;;9.60;99.90;;;;;;5010102;28;21030;-68
2021/01/21 11:27:08;;;;;;;2.70;1.67;;;9.70;99.90;;;;;;5016974;28;20631;-67
2021/01/21 11:29:52;;;;;;;1.80;1.70;;;9.80;99.90;;;;;;5005480;28;20678;-68
2021/01/21 11:32:40;;;;;;;2.70;1.63;;;10.00;99.90;;;;;;5001250;28;21059;-68
2021/01/21 11:35:24;;;;;;;2.20;1.73;;;10.10;99.90;;;;;;4994140;28;20775;-67
2021/01/21 11:38:11;;;;;;;2.70;1.20;;;10.00;99.90;;;;;;4995309;28;21048;-68
2021/01/21 11:40:56;;;;;;;3.43;1.77;;;10.10;99.90;;;;;;4999836;28;20620;-68
2021/01/21 11:43:40;;;;;;;2.50;1.70;;;10.10;99.90;;;;;;4999322;28;20953;-68
2021/01/21 11:46:25;;;;;;;1.30;1.20;;;10.20;99.90;;;;;;4999760;28;20964;-67
2021/01/21 11:49:09;;;;;;;4.10;1.60;;;10.20;99.90;;;;;;4991016;28;20654;-68
2021/01/21 11:51:55;;;;;;;2.33;1.93;;;10.20;99.90;;;;;;5005526;28;20591;-67
2021/01/21 11:54:39;;;;;;;2.03;1.60;;;10.10;99.90;;;;;;5000212;28;20646;-67
2021/01/21 11:57:24;;;;;;;3.50;2.07;;;10.00;99.90;;;;;;5001893;28;20612;-65
2021/01/21 12:00:16;;;;;;;5.63;1.50;;;10.00;99.90;;;;;;5000476;28;20671;-66
2021/01/21 12:03:01;;;;;;;1.50;1.40;;;10.10;99.90;;;;;;5006690;28;21206;-67
2021/01/21 12:05:46;;;;;;;2.13;1.90;;;9.90;99.90;;;;;;5005311;28;20741;-67
2021/01/21 12:08:31;;;;;;;2.33;1.80;;;10.00;99.90;;;;;;5006944;28;20651;-67
2021/01/21 12:11:15;;;;;;;1.90;1.40;;;10.10;99.90;;;;;;5000983;28;20632;-66
2021/01/21 12:14:01;;;;;;;6.70;2.37;;;9.90;99.90;;;;;;5002392;28;20677;-67
2021/01/21 12:16:45;;;;;;;1.93;1.50;;;9.90;99.90;;;;;;5006777;28;21266;-66
2021/01/21 12:19:30;;;;;;;2.90;1.33;;;9.80;99.90;;;;;;5003203;28;20655;-67
2021/01/21 12:22:14;;;;;;;4.83;1.70;;;9.80;99.90;;;;;;5001252;28;20754;-66
2021/01/21 12:24:58;;;;;;;3.17;1.73;;;9.80;99.90;;;;;;4998908;28;20644;-65
2021/01/21 12:27:43;;;;;;;2.30;1.30;;;9.80;99.90;;;;;;5004315;28;20909;-67
2021/01/21 12:30:27;;;;;;;3.40;1.37;;;9.80;99.90;;;;;;4999044;28;21031;-66
2021/01/21 12:33:12;;;;;;;4.73;1.60;;;9.80;99.90;;;;;;5000159;28;20624;-67
2021/01/21 12:35:57;;;;;;;3.03;1.47;;;9.80;99.90;;;;;;4994167;28;20611;-66
2021/01/21 12:38:42;;;;;;;1.97;1.40;;;9.90;99.90;;;;;;5005007;28;20655;-67
2021/01/21 12:41:27;;;;;;;3.57;1.90;;;9.90;99.90;;;;;;5003548;28;20611;-66
2021/01/21 12:44:12;;;;;;;4.53;2.03;;;9.90;99.90;;;;;;4984662;28;20796;-66
2021/01/21 12:46:57;;;;;;;2.23;1.40;;;9.90;99.90;;;;;;5013572;28;20996;-66
2021/01/21 12:49:41;;;;;;;2.60;1.63;;;9.90;99.90;;;;;;5004343;28;20733;-66
2021/01/21 12:52:26;;;;;;;3.27;1.90;;;9.90;99.90;;;;;;4999551;28;20639;-66
2021/01/21 12:55:11;;;;;;;2.73;1.40;;;10.00;99.90;;;;;;4990223;28;20660;-67
2021/01/21 12:57:56;;;;;;;2.73;1.77;;;10.00;99.90;;;;;;5004730;28;20647;-67
2021/01/21 13:00:41;;;;;;;3.30;1.57;;;10.20;99.90;;;;;;4991132;28;20604;-67
2021/01/21 13:03:25;;;;;;;2.63;1.57;;;10.30;99.90;;;;;;4989580;28;21225;-66
2021/01/21 13:06:10;;;;;;;2.30;1.57;;;10.40;99.90;;;;;;4993357;28;21041;-67
2021/01/21 13:08:54;;;;;;;3.07;1.90;;;10.40;99.90;;;;;;4989754;28;20814;-64
2021/01/21 13:11:39;;;;;;;1.87;1.70;;;10.60;99.90;;;;;;4982234;28;20619;-67
2021/01/21 13:14:24;;;;;;;2.40;1.77;;;10.60;99.90;;;;;;4984433;28;20745;-65
2021/01/21 13:17:08;;;;;;;3.03;1.60;;;10.70;99.90;;;;;;4985711;28;20768;-66
2021/01/21 13:19:53;;;;;;;3.80;1.43;;;10.80;99.90;;;;;;4995748;28;20671;-66
2021/01/21 13:22:37;;;;;;;3.23;1.67;;;10.50;99.90;;;;;;4991678;28;21028;-67
2021/01/21 13:25:22;;;;;;;2.00;1.50;;;10.60;99.90;;;;;;4995376;28;20647;-67
2021/01/21 13:28:06;;;;;;;2.07;1.27;;;10.60;99.90;;;;;;5008757;28;20604;-67
2021/01/21 13:30:51;;;;;;;2.43;1.53;;;10.60;99.90;;;;;;5001573;28;20619;-67
2021/01/21 13:33:35;;;;;;;3.97;1.53;;;10.50;99.90;;;;;;5002170;28;20653;-67
2021/01/21 13:36:20;;;;;;;4.03;1.70;;;10.50;99.90;;;;;;5003119;28;20701;-68
2021/01/21 13:39:05;;;;;;;5.60;2.30;;;10.40;99.90;;;;;;5006637;28;20650;-68
2021/01/21 13:41:49;;;;;;;3.07;1.93;;;10.20;99.90;;;;;;5001676;28;20591;-69
2021/01/21 13:44:33;;;;;;;1.70;1.60;;;10.30;99.90;;;;;;5002770;28;20788;-67
2021/01/21 13:47:18;;;;;;;3.23;1.80;;;10.30;99.90;;;;;;5007332;28;21213;-67
2021/01/21 13:50:03;;;;;;;5.23;1.90;;;10.20;99.90;;;;;;5006398;28;20972;-68
2021/01/21 13:52:48;;;;;;;2.87;1.80;;;10.10;99.90;;;;;;5002385;28;20929;-65
2021/01/21 13:55:32;;;;;;;2.70;2.10;;;10.00;99.90;;;;;;5002542;28;20807;-66
2021/01/21 13:58:17;;;;;;;3.00;1.90;;;10.10;99.90;;;;;;4992542;28;20640;-68
2021/01/21 14:01:01;;;;;;;2.63;1.90;;;10.00;99.90;;;;;;5006972;28;20600;-69
2021/01/21 14:03:45;;;;;;;3.00;2.20;;;10.10;99.90;;;;;;5004484;28;20626;-69
2021/01/21 14:06:30;;;;;;;5.23;2.50;;;10.10;99.90;;;;;;5032715;22;20694;-90
2021/01/21 14:09:15;;;;;;;8.83;3.27;;;10.00;99.90;;;;;;5057624;28;20670;-90
2021/01/21 14:12:00;;;;;;;4.47;2.30;;;10.00;99.90;;;;;;5054952;28;21155;-90
2021/01/21 14:14:46;;;;;;;3.10;2.10;;;9.90;99.90;;;;;;5033316;28;20746;-88
2021/01/21 14:17:31;;;;;;;3.47;2.57;;;9.90;99.90;;;;;;5005120;28;20639;-88
2021/01/21 14:20:15;;;;;;;3.90;2.70;;;9.90;99.90;;;;;;5018944;28;20816;-88
2021/01/21 14:23:00;;;;;;;3.23;2.57;;;9.90;99.90;;;;;;5016326;28;20669;-91
2021/01/21 14:25:46;;;;;;;4.43;2.60;;;9.80;99.90;;;;;;5017280;28;20690;-89
2021/01/21 14:28:30;;;;;;;3.27;2.77;;;9.90;99.90;;;;;;5035567;28;20611;-90
2021/01/21 14:31:15;;;;;;;4.10;2.53;;;10.00;99.90;;;;;;5026790;28;20618;-89
2021/01/21 14:34:00;;;;;;;3.73;2.70;;;10.00;99.90;;;;;;5021388;28;20667;-88
2021/01/21 14:36:44;;;;;;;5.20;2.83;;;10.00;99.90;;;;;;5022605;28;20614;-89